Tiempo atmosférico en la estación meteorológica de Balsareny, Barcelona (352 m.)



Fecha
DESCASC
Temp. máxima en grados centígrados (hora)
DESCASC
Temp. mínima en grados centígrados (hora)
DESCASC
Temp. media en grados centígrados
DESCASC
Racha de viento máxima en m/sg (hora)
DESCASC
Velocidad máxima media en intervalos de 10 minutos(hora)
DESCASC
Precipitaciones diarias en mm
DESCASC
Precipitaciones de 00:00 a 06:00 en mm
DESCASC
Precipitaciones de 06:00 a 12:00 en mm
DESCASC
Precipitaciones de 12:00 a 18:00 en mm
DESCASC
Precipitaciones de 18:00 a 24:00 en mm
DESCASC
21-02-2021 15.6 (14:30) -1.1 (07:50) 7.3 14.17 (16:30) 7.5 (14:40) 0 0 0 0 0
20-02-2021 16.5 (15:30) -0.7 (07:20) 7.9 5.56 (15:00) 4.17 (16:20) 0 0 0 0 0
19-02-2021 18.4 (16:30) 1.9 (09:00) 10.1 6.39 (18:00) 3.89 (18:00) 0 0 0 0 0
18-02-2021 16.6 (15:50) 1.5 (00:00) 9.1 6.11 (16:00) 4.17 (16:00) 0 0 0 0 0
17-02-2021 18.2 (16:20) 3 (00:00) 10.6 6.39 (18:40) 4.72 (18:40) 0 0 0 0 0
16-02-2021 16.9 (16:40) 5.1 (00:00) 11 6.94 (16:20) 3.89 (12:10) 0 0 0 0 0
15-02-2021 8.2 (17:30) 4.5 (00:00) 6.3 4.72 (18:30) 2.5 (17:20) 0.2 0.2 0 0 0
14-02-2021 8.9 (01:20) 4.7 (00:00) 6.8 6.67 (16:40) 4.44 (14:00) 4.8 1.2 3.2 0.2 0.2
13-02-2021 16.1 (15:40) 2.9 (00:00) 9.5 5.83 (16:30) 2.78 (01:20) 0 0 0 0 0
12-02-2021 15.8 (14:00) 1.6 (00:00) 8.7 8.33 (16:20) 5 (16:20) 0.6 0 0 0 0.6
11-02-2021 16 (15:20) -2.2 (-00:0) 6.9 6.67 (15:30) 3.33 (15:30) 0 0 0 0 0
10-02-2021 13.4 (16:00) 3.2 (00:00) 8.3 10 (18:30) 5.56 (18:10) 0 0 0 0 0
09-02-2021 10.6 (13:50) -1.2 (-00:0) 4.7 5.83 (14:00) 3.89 (20:30) 0.8 0 0 0.2 0.6
08-02-2021 9.8 (12:10) -0.3 (00:00) 4.8 7.78 (12:30) 3.33 (15:00) 1.6 0 0 1.6 0
07-02-2021 9.4 (16:30) 3.1 (00:00) 6.2 6.39 (05:30) 3.61 (04:30) 0 0 0 0 0
06-02-2021 16.5 (14:20) 7.5 (00:00) 12 6.94 (11:50) 4.44 (12:20) 0 0 0 0 0
05-02-2021 18.3 (16:00) 5.5 (00:00) 11.9 6.11 (14:00) 4.44 (14:00) 0 0 0 0 0
04-02-2021 19 (15:30) 2.6 (00:00) 10.8 3.89 (15:50) 2.5 (04:00) 0 0 0 0 0
03-02-2021 18.9 (14:10) 0.2 (00:00) 9.5 11.11 (14:50) 6.39 (14:50) 0 0 0 0 0
02-02-2021 17.9 (14:10) 2.4 (00:00) 10.1 8.61 (13:40) 4.72 (14:40) 0 0 0 0 0
01-02-2021 18 (14:50) 4.6 (00:00) 11.3 12.22 (17:30) 6.39 (15:20) 1.6 1.6 0 0 0
31-01-2021 16.2 (17:00) 4.3 (00:00) 10.3 8.89 (16:00) 5.56 (16:00) 0 0 0 0 0
30-01-2021 15.8 (14:40) 3 (00:00) 9.4 12.22 (18:20) 6.11 (18:20) 0 0 0 0 0
29-01-2021 19.1 (16:30) 3.6 (00:00) 11.4 9.72 (17:30) 6.39 (17:30) 0 0 0 0 0
28-01-2021 16.6 (16:30) 5.8 (00:00) 11.2 7.5 (12:20) 3.89 (12:30) 0 0 0 0 0
27-01-2021 16.6 (17:10) -1.6 (-00:0) 7.5 3.33 (22:20) 2.78 (22:30) 0 0 0 0 0
26-01-2021 12.1 (16:00) 0.1 (00:00) 6.1 6.11 (16:50) 3.89 (01:20) 0 0 0 0 0
25-01-2021 11.8 (14:10) -0.4 (00:00) 5.7 6.39 (01:10) 3.89 (01:00) 0 0 0 0 0

Gráficas

Temp. máximas Temp. mínimas Temp. medias Precipitaciones Rachas de viento máximas Velocidades máximas media en intervalos de 10 minutos

Datos horarios

Fecha y hora oficial Temperatura (ºC) Velocidad del viento (km/h) Dirección del viento Racha (km/h) Dirección de racha Precipitación (mm) Presión (hPa) Tendencia (hPa) Humedad (%)
2021-02-23 23:00:00 9 0 Calma 8 Norte 0 -- -- 97
2021-02-23 22:00:00 8.8 5 Norte 8 Norte 0 -- -- 95
2021-02-23 21:00:00 10.8 2 Sur 7 Sur 0 -- -- 91
2021-02-23 20:00:00 12.2 2 Sur 6 Sudoeste 0 -- -- 86
2021-02-23 19:00:00 14.2 3 Sur 5 Sudoeste 0 -- -- 78
2021-02-23 18:00:00 16.1 2 Sudoeste 6 Noroeste 0 -- -- 69
2021-02-23 17:00:00 16.5 4 Noroeste 9 Noroeste 0 -- -- 67
2021-02-23 16:00:00 18.1 4 Norte 9 Sudeste 0 -- -- 65
2021-02-23 15:00:00 16.7 5 Sur 10 Sur 0 -- -- 65
2021-02-23 14:00:00 16.6 6 Sur 12 Sudoeste 0 -- -- 67
2021-02-23 13:00:00 16.2 3 Sudeste 8 Este 0 -- -- 67
2021-02-23 12:00:00 14.9 4 Nordeste 10 Noroeste 0 -- -- 76
2021-02-23 11:00:00 12.6 3 Norte 5 Norte 0 -- -- 94
2021-02-23 10:00:00 11.1 2 Norte 5 Sur 0 -- -- 99
2021-02-23 09:00:00 9.7 0 Calma 5 Norte 0 -- -- 100
2021-02-23 08:00:00 9.1 3 Oeste 6 Sudeste 0 -- -- 99
2021-02-23 07:00:00 9.2 4 Norte 6 Norte 0 -- -- 98
2021-02-23 06:00:00 9.7 3 Norte 10 Noroeste 0 -- -- 97
2021-02-23 05:00:00 9.6 0 Calma 9 Noroeste 0 -- -- 98
2021-02-23 04:00:00 9.5 3 Norte 6 Norte 0 -- -- 99
2021-02-23 03:00:00 9.7 6 Noroeste 8 Noroeste 0 -- -- 98
2021-02-23 02:00:00 9.9 0 Calma 9 Noroeste 0 -- -- 98
2021-02-23 01:00:00 9.7 7 Norte 9 Norte 0 -- -- 98
2021-02-23 00:00:00 10 3 Noroeste 8 Noroeste 0.2 -- -- 99
2021-02-22 23:00:00 10 8 Noroeste 9 Noroeste 0 -- -- 98
2021-02-22 22:00:00 10.2 3 Sudoeste 7 Sudoeste 1 -- -- 98
2021-02-22 21:00:00 10.4 4 Sudoeste 7 Sur 0.4 -- -- 96
2021-02-22 20:00:00 10.8 2 Oeste 6 Oeste 0 -- -- 92
2021-02-22 19:00:00 11.1 2 Noroeste 5 Noroeste 0 -- -- 96
2021-02-22 18:00:00 11.5 2 Oeste 13 Sur 0 -- -- 94
2021-02-22 17:00:00 11.5 2 Nordeste 7 Noroeste 0 -- -- 96
2021-02-22 16:00:00 11.5 4 Noroeste 11 Norte 0.2 -- -- 97
2021-02-22 15:00:00 11.9 4 Norte 9 Noroeste 0.2 -- -- 95
2021-02-22 14:00:00 12 4 Norte 9 Nordeste 0.4 -- -- 97
2021-02-22 13:00:00 12.1 5 Norte 10 Norte 0.6 -- -- 97
2021-02-22 12:00:00 11.6 6 Nordeste 9 Nordeste 1.8 -- -- 97
2021-02-22 11:00:00 11.4 4 Norte 8 Noroeste 2 -- -- 96
2021-02-22 10:00:00 11.4 2 Norte 5 Norte 1.8 -- -- 95
2021-02-22 09:00:00 11.7 4 Sudoeste 8 Noroeste 0.8 -- -- 92
2021-02-22 08:00:00 12 3 Norte 11 Noroeste 0.2 -- -- 87
2021-02-22 07:00:00 12.3 9 Norte 12 Noroeste 0 -- -- 84
2021-02-22 06:00:00 12.8 4 Nordeste 21 Este 0 -- -- 82
2021-02-22 05:00:00 12.9 12 Nordeste 24 Norte 0 -- -- 82
2021-02-22 04:00:00 12.5 11 Norte 23 Nordeste 0 -- -- 83
2021-02-22 03:00:00 12.6 12 Nordeste 35 Nordeste 0 -- -- 83
2021-02-22 02:00:00 12.6 16 Nordeste 33 Nordeste 0 -- -- 81
2021-02-22 01:00:00 12.4 15 Nordeste 41 Nordeste 0 -- -- 81
2021-02-22 00:00:00 12.4 17 Nordeste 38 Nordeste 0 -- -- 79
2021-02-21 23:00:00 12.4 21 Nordeste 36 Nordeste 0 -- -- 78
2021-02-21 22:00:00 12.2 21 Nordeste 38 Norte 0 -- -- 77
2021-02-21 21:00:00 12.1 17 Norte 32 Nordeste 0 -- -- 75
2021-02-21 20:00:00 12.2 21 Nordeste 36 Nordeste 0 -- -- 74
2021-02-21 19:00:00 12.1 24 Nordeste 47 Nordeste 0 -- -- 72
2021-02-21 18:00:00 12.9 16 Nordeste 43 Nordeste 0 -- -- 68
2021-02-21 17:00:00 13.9 26 Nordeste 51 Este 0 -- -- 65
2021-02-21 16:00:00 14.3 24 Nordeste 40 Nordeste 0 -- -- 64
2021-02-21 15:00:00 14.5 22 Este 46 Este 0 -- -- 62
2021-02-21 14:00:00 14.5 24 Este 49 Nordeste 0 -- -- 61
2021-02-21 13:00:00 14.6 24 Nordeste 45 Nordeste 0 -- -- 61
2021-02-21 12:00:00 15 18 Nordeste 39 Nordeste 0 -- -- 62
2021-02-21 11:00:00 13.4 21 Nordeste 39 Nordeste 0 -- -- 69
2021-02-21 10:00:00 7.1 8 Norte 16 Nordeste 0 -- -- 97
2021-02-21 09:00:00 0.8 4 Norte 14 Noroeste 0 -- -- 99
2021-02-21 08:00:00 -0.9 8 Noroeste 11 Noroeste 0 -- -- 99
2021-02-21 07:00:00 -0.3 0 Calma 4 Norte 0 -- -- 98
2021-02-21 06:00:00 0 0 Calma 9 Noroeste 0 -- -- 98
2021-02-21 05:00:00 -0.4 5 Norte 9 Noroeste 0 -- -- 97
2021-02-21 04:00:00 1.2 2 Noroeste 6 Nordeste 0 -- -- 96
2021-02-21 03:00:00 0.9 0 Calma 9 Norte 0 -- -- 97
2021-02-21 02:00:00 2.2 5 Norte 10 Noroeste 0 -- -- 97
2021-02-21 01:00:00 1.9 5 Noroeste 8 Norte 0 -- -- 96
2021-02-21 00:00:00 2.6 4 Norte 8 Noroeste 0 -- -- 95
2021-02-20 23:00:00 4.7 2 Norte 7 Norte 0 -- -- 96
2021-02-20 22:00:00 5.5 4 Norte 10 Norte 0 -- -- 91
2021-02-20 21:00:00 7.3 3 Oeste 8 Noroeste 0 -- -- 92
2021-02-20 20:00:00 9.8 3 Norte 13 Sur 0 -- -- 84
2021-02-20 19:00:00 11.6 6 Sudoeste 14 Sudoeste 0 -- -- 78
2021-02-20 18:00:00 13.9 10 Sur 14 Sur 0 -- -- 69
2021-02-20 17:00:00 15.4 7 Sur 19 Sudoeste 0 -- -- 60
2021-02-20 16:00:00 16.3 11 Sur 19 Sudoeste 0 -- -- 56
2021-02-20 15:00:00 16 12 Sur 20 Sur 0 -- -- 55
2021-02-20 14:00:00 14.6 11 Sur 17 Sur 0 -- -- 64
2021-02-20 13:00:00 12 5 Sudeste 11 Sudeste 0 -- -- 76
2021-02-20 12:00:00 9.3 5 Sudeste 14 Sudeste 0 -- -- 85
2021-02-20 11:00:00 6.9 5 Sur 10 Sudeste 0 -- -- 88
2021-02-20 10:00:00 4 3 Nordeste 5 Este 0 -- -- 97
2021-02-20 09:00:00 0.4 0 Calma 4 Norte 0 -- -- 99
2021-02-20 08:00:00 -0.5 4 Sudoeste 6 Noroeste 0 -- -- 99
2021-02-20 07:00:00 -0.3 0 Calma 5 Sur 0 -- -- 97
2021-02-20 06:00:00 0.6 0 Calma 5 Norte 0 -- -- 98
2021-02-20 05:00:00 0.3 0 Calma 4 Norte 0 -- -- 98
2021-02-20 04:00:00 1.3 0 Calma 3 Norte 0 -- -- 97
2021-02-20 03:00:00 1.9 2 Norte 4 Norte 0 -- -- 96
2021-02-20 02:00:00 2.9 0 Calma 8 Noroeste 0 -- -- 95
2021-02-20 01:00:00 3.2 2 Norte 6 Norte 0 -- -- 95
2021-02-20 00:00:00 4.1 5 Norte 6 Norte 0 -- -- 95
2021-02-19 23:00:00 4.7 5 Norte 8 Norte 0 -- -- 94
2021-02-19 22:00:00 6.8 2 Noroeste 9 Norte 0 -- -- 89
2021-02-19 21:00:00 8.9 6 Noroeste 11 Noroeste 0 -- -- 84
2021-02-19 20:00:00 12.2 7 Sur 13 Sur 0 -- -- 73
2021-02-19 19:00:00 13.4 8 Sur 17 Sudoeste 0 -- -- 71
2021-02-19 18:00:00 15.6 14 Sudoeste 23 Sudoeste 0 -- -- 60
2021-02-19 17:00:00 17.8 13 Sur 20 Sur 0 -- -- 54
2021-02-19 16:00:00 18 12 Sur 19 Sur 0 -- -- 56
2021-02-19 15:00:00 16.5 12 Sur 17 Sur 0 -- -- 61
2021-02-19 14:00:00 13.5 11 Sur 16 Sur 0 -- -- 72
2021-02-19 13:00:00 9.2 9 Sudeste 14 Sudeste 0 -- -- 86
2021-02-19 12:00:00 7.4 7 Sur 12 Sur 0 -- -- 95
2021-02-19 11:00:00 4.6 4 Sudeste 6 Sur 0 -- -- 100
2021-02-19 10:00:00 3 2 Sudeste 5 Este 0 -- -- 100
2021-02-19 09:00:00 1.9 3 Norte 6 Nordeste 0 -- -- 100
2021-02-19 08:00:00 2.1 4 Norte 7 Nordeste 0 -- -- 100
2021-02-19 07:00:00 2.5 4 Norte 7 Nordeste 0 -- -- 100
2021-02-19 06:00:00 3.1 3 Nordeste 6 Nordeste 0 -- -- 100
2021-02-19 05:00:00 3.6 3 Norte 5 Nordeste 0 -- -- 99
2021-02-19 04:00:00 3.8 0 Calma 6 Norte 0 -- -- 99
2021-02-19 03:00:00 4.2 4 Norte 5 Norte 0 -- -- 99
2021-02-19 02:00:00 4.2 0 Calma 6 Norte 0 -- -- 99
2021-02-19 01:00:00 4.2 4 Noroeste 7 Norte 0 -- -- 98
2021-02-19 00:00:00 4.5 2 Norte 10 Norte 0 -- -- 95
2021-02-18 23:00:00 6.2 8 Noroeste 11 Noroeste 0 -- -- 96
2021-02-18 22:00:00 7.8 0 Calma 8 Sudeste 0 -- -- 93
2021-02-18 21:00:00 9.5 4 Sur 12 Sudoeste 0 -- -- 87
2021-02-18 20:00:00 11.1 6 Sur 13 Sudoeste 0 -- -- 83
2021-02-18 19:00:00 12.7 3 Sur 21 Sudoeste 0 -- -- 76
2021-02-18 18:00:00 14.1 12 Sur 20 Sur 0 -- -- 69
2021-02-18 17:00:00 15.9 13 Sur 22 Sudoeste 0 -- -- 63
2021-02-18 16:00:00 16.4 15 Sudoeste 22 Sur 0 -- -- 61
2021-02-18 15:00:00 15.7 12 Sur 19 Sur 0 -- -- 64
2021-02-18 14:00:00 13.3 8 Sur 14 Sur 0 -- -- 76
2021-02-18 13:00:00 10.2 8 Sudeste 14 Sudeste 0 -- -- 89
2021-02-18 12:00:00 7.7 6 Sur 18 Sur 0 -- -- 100
2021-02-18 11:00:00 5.5 10 Sur 15 Sur 0 -- -- 100
2021-02-18 10:00:00 3.8 3 Sur 5 Sur 0 -- -- 100
2021-02-18 09:00:00 2.5 2 Este 5 Norte 0 -- -- 100
2021-02-18 08:00:00 1.5 0 Calma 4 Noroeste 0 -- -- 100
2021-02-18 07:00:00 1.9 2 Nordeste 5 Norte 0 -- -- 99
2021-02-18 06:00:00 2.8 3 Norte 7 Norte 0 -- -- 99
2021-02-18 05:00:00 2.4 0 Calma 4 Sur 0 -- -- 98
2021-02-18 04:00:00 3.2 0 Calma 5 Norte 0 -- -- 99
2021-02-18 03:00:00 3.8 4 Noroeste 8 Norte 0 -- -- 96
2021-02-18 02:00:00 5 3 Sur 11 Noroeste 0 -- -- 97
2021-02-18 01:00:00 5 2 Norte 9 Norte 0 -- -- 95
2021-02-18 00:00:00 6.4 6 Norte 9 Norte 0 -- -- 96
2021-02-17 23:00:00 7.3 2 Norte 6 Noroeste 0 -- -- 92
2021-02-17 22:00:00 8.8 3 Noroeste 6 Norte 0 -- -- 88
2021-02-17 21:00:00 11.2 4 Sur 13 Sur 0 -- -- 82
2021-02-17 20:00:00 12.9 5 Sur 17 Sudoeste 0 -- -- 78
2021-02-17 19:00:00 14 13 Sudoeste 23 Sur 0 -- -- 72
2021-02-17 18:00:00 15.9 13 Sur 21 Sur 0 -- -- 64
2021-02-17 17:00:00 18 13 Sur 21 Sur 0 -- -- 56
2021-02-17 16:00:00 18.1 12 Sur 19 Sur 0 -- -- 57
2021-02-17 15:00:00 17 10 Sudeste 17 Sudeste 0 -- -- 59
2021-02-17 14:00:00 16.4 9 Sur 17 Sur 0 -- -- 60
2021-02-17 13:00:00 14.2 4 Sudeste 10 Este 0 -- -- 69
2021-02-17 12:00:00 12.8 3 Este 8 Sur 0 -- -- 75
2021-02-17 11:00:00 10.4 3 Nordeste 6 Noroeste 0 -- -- 83
2021-02-17 10:00:00 6.6 3 Nordeste 4 Este 0 -- -- 97
2021-02-17 09:00:00 4.3 0 Calma 4 Norte 0 -- -- 99
2021-02-17 08:00:00 3.4 2 Noroeste 5 Norte 0 -- -- 99
2021-02-17 07:00:00 3.7 0 Calma 7 Noroeste 0 -- -- 99
2021-02-17 06:00:00 3 4 Norte 7 Norte 0 -- -- 98
2021-02-17 05:00:00 3.9 0 Calma 4 Norte 0 -- -- 98
2021-02-17 04:00:00 4 2 Noroeste 4 Norte 0 -- -- 98
2021-02-17 03:00:00 4.2 2 Norte 6 Noroeste 0 -- -- 98
2021-02-17 02:00:00 4.6 3 Norte 4 Norte 0 -- -- 97
2021-02-17 01:00:00 4.5 2 Norte 5 Norte 0 -- -- 95
2021-02-17 00:00:00 5.2 2 Sur 5 Norte 0 -- -- 96
2021-02-16 23:00:00 5.3 0 Calma 7 Noroeste 0 -- -- 94
2021-02-16 22:00:00 6.4 4 Norte 9 Norte 0 -- -- 92
2021-02-16 21:00:00 8.1 3 Noroeste 9 Noroeste 0 -- -- 87
2021-02-16 20:00:00 10.9 5 Norte 13 Oeste 0 -- -- 77
2021-02-16 19:00:00 12.4 5 Sudoeste 12 Sudoeste 0 -- -- 71
2021-02-16 18:00:00 14.6 5 Sudoeste 17 Noroeste 0 -- -- 61
2021-02-16 17:00:00 16.6 9 Sudoeste 25 Sudoeste 0 -- -- 55
2021-02-16 16:00:00 16.7 10 Sudoeste 20 Sudoeste 0 -- -- 54
2021-02-16 15:00:00 15.7 8 Sudoeste 23 Sudoeste 0 -- -- 57
2021-02-16 14:00:00 14.4 11 Sudoeste 22 Sudoeste 0 -- -- 63
2021-02-16 13:00:00 13.4 5 Sudoeste 24 Sudoeste 0 -- -- 65
2021-02-16 12:00:00 11.8 7 Oeste 22 Oeste 0 -- -- 70
2021-02-16 11:00:00 10.2 9 Sudoeste 17 Oeste 0 -- -- 74
2021-02-16 10:00:00 9.2 7 Noroeste 19 Oeste 0 -- -- 79
2021-02-16 09:00:00 8.6 6 Noroeste 14 Noroeste 0 -- -- 84
2021-02-16 08:00:00 7.5 2 Sudoeste 11 Oeste 0 -- -- 97
2021-02-16 07:00:00 6.9 2 Sur 5 Sur 0 -- -- 98
2021-02-16 06:00:00 6.6 2 Sur 6 Norte 0 -- -- 99
2021-02-16 05:00:00 6.6 0 Calma 5 Noroeste 0 -- -- 98
2021-02-16 04:00:00 6.7 0 Calma 3 Sudoeste 0 -- -- 98
2021-02-16 03:00:00 6.8 0 Calma 3 Norte 0 -- -- 97
2021-02-16 02:00:00 7 0 Calma 5 Noroeste 0 -- -- 97
2021-02-16 01:00:00 7.1 3 Noroeste 4 Norte 0 -- -- 96
2021-02-16 00:00:00 7.5 0 Calma 5 Sur 0 -- -- 93
2021-02-15 23:00:00 7.7 4 Sur 8 Sur 0 -- -- 93
2021-02-15 22:00:00 7.8 6 Sur 11 Sur 0 -- -- 92
2021-02-15 21:00:00 7.9 6 Sudeste 11 Sudeste 0 -- -- 92
2021-02-15 20:00:00 7.9 4 Sur 13 Sudoeste 0 -- -- 93
2021-02-15 19:00:00 7.9 6 Sudeste 17 Sur 0 -- -- 91
2021-02-15 18:00:00 8.1 7 Sur 13 Sur 0 -- -- 90
2021-02-15 17:00:00 7.9 8 Sur 12 Sur 0 -- -- 91
2021-02-15 16:00:00 7.7 5 Sur 8 Sur 0 -- -- 92
2021-02-15 15:00:00 7.3 3 Sur 6 Sur 0 -- -- 94
2021-02-15 14:00:00 7 6 Sur 9 Sur 0 -- -- 94
2021-02-15 13:00:00 6.8 2 Sudeste 5 Sudeste 0 -- -- 93
2021-02-15 12:00:00 6.3 2 Nordeste 5 Nordeste 0 -- -- 96
2021-02-15 11:00:00 5.6 2 Norte 4 Norte 0 -- -- 98
2021-02-15 10:00:00 5.3 2 Norte 5 Norte 0 -- -- 98
2021-02-15 09:00:00 5.1 2 Noroeste 5 Noroeste 0 -- -- 98
2021-02-15 08:00:00 4.8 2 Noroeste 4 Noroeste 0 -- -- 99
2021-02-15 07:00:00 4.8 4 Norte 4 Norte 0 -- -- 99
2021-02-15 06:00:00 4.7 3 Sur 4 Sur 0 -- -- 99
2021-02-15 05:00:00 4.7 0 Calma 4 Norte 0 -- -- 99
2021-02-15 04:00:00 4.6 2 Nordeste 5 Nordeste 0 -- -- 99
2021-02-15 03:00:00 4.5 0 Calma -- -- 0.2 -- -- 99
2021-02-15 02:00:00 4.5 2 Norte 3 Norte 0 -- -- 98
2021-02-15 01:00:00 4.7 3 Norte 4 Sudeste 0 -- -- 97
2021-02-15 00:00:00 4.7 3 Norte 5 Noroeste 0.2 -- -- 97
2021-02-14 23:00:00 5 3 Norte 4 Norte 0 -- -- 94
2021-02-14 22:00:00 5.1 2 Norte 9 Sur 0 -- -- 93
2021-02-14 21:00:00 5.2 3 Sudoeste 6 Sur 0 -- -- 88
2021-02-14 20:00:00 5.2 5 Sur 15 Sur 0 -- -- 88
2021-02-14 19:00:00 5.4 9 Sur 15 Sur 0 -- -- 87
2021-02-14 18:00:00 5.6 10 Sur 18 Sur 0 -- -- 88
2021-02-14 17:00:00 5.8 12 Sur 24 Sur 0 -- -- 88
2021-02-14 16:00:00 6.6 12 Sur 20 Sur 0 -- -- 86
2021-02-14 15:00:00 6.8 13 Sur 23 Sudeste 0 -- -- 87
2021-02-14 14:00:00 7.4 16 Sur 23 Sur 0 -- -- 89
2021-02-14 13:00:00 7.3 12 Sur 22 Sur 0.2 -- -- 92
2021-02-14 12:00:00 7.2 3 Norte 4 Norte 0.2 -- -- 98
2021-02-14 11:00:00 6.9 0 Calma 3 Sudoeste 0.4 -- -- 98
2021-02-14 10:00:00 6.7 3 Noroeste 8 Sudoeste 0.6 -- -- 98
2021-02-14 09:00:00 6.7 5 Sur 9 Sudoeste 1.2 -- -- 98
2021-02-14 08:00:00 6.9 8 Sur 13 Sur 0 -- -- 98
2021-02-14 07:00:00 7.5 9 Sur 18 Sur 0.8 -- -- 97
2021-02-14 06:00:00 8.3 10 Sur 17 Sudoeste 0.6 -- -- 97
2021-02-14 05:00:00 8.6 6 Sur 12 Sur 0.6 -- -- 97
2021-02-14 04:00:00 8.7 0 Calma 7 Noroeste 0 -- -- 92
2021-02-14 03:00:00 8.6 4 Norte 6 Norte 0 -- -- 92
2021-02-14 02:00:00 8.7 3 Norte 5 Noroeste 0 -- -- 90
2021-02-14 01:00:00 8.8 0 Calma 6 Noroeste 0 -- -- 87
2021-02-14 00:00:00 8.5 5 Norte 7 Norte 0 -- -- 87
2021-02-13 23:00:00 8 4 Norte 5 Norte 0 -- -- 89
2021-02-13 22:00:00 7.9 5 Noroeste 8 Noroeste 0 -- -- 88
2021-02-13 21:00:00 7.9 2 Norte 9 Noroeste 0 -- -- 86
2021-02-13 20:00:00 9.6 5 Noroeste 7 Noroeste 0 -- -- 81
2021-02-13 19:00:00 11.2 4 Noroeste 9 Oeste 0 -- -- 74
2021-02-13 18:00:00 12.3 6 Noroeste 19 Oeste 0 -- -- 69
2021-02-13 17:00:00 13.4 9 Noroeste 21 Sudoeste 0 -- -- 63
2021-02-13 16:00:00 15.8 10 Sur 15 Sur 0 -- -- 59
2021-02-13 15:00:00 15.2 4 Nordeste 17 Oeste 0 -- -- 59
2021-02-13 14:00:00 13.9 6 Noroeste 14 Sudoeste 0 -- -- 63
2021-02-13 13:00:00 13.3 5 Nordeste 15 Oeste 0 -- -- 71
2021-02-13 08:00:00 -- -- -- -- -- -- -- -- --
2021-02-13 07:00:00 3.6 5 Oeste 10 Noroeste 0 -- -- 99
2021-02-13 06:00:00 4 4 Norte 12 Noroeste 0 -- -- 98
2021-02-13 05:00:00 3.7 4 Norte 12 Noroeste 0 -- -- 97
2021-02-13 04:00:00 4.7 4 Norte 9 Norte 0 -- -- 96
2021-02-13 03:00:00 5.7 0 Calma 9 Norte 0 -- -- 96
2021-02-13 02:00:00 6.9 4 Norte 14 Oeste 0 -- -- 93
2021-02-13 01:00:00 8.7 3 Sudoeste 12 Oeste 0 -- -- 90
2021-02-13 00:00:00 9.8 8 Sudoeste 15 Sudoeste 0 -- -- 88
2021-02-12 23:00:00 10.2 5 Sudoeste 13 Sudoeste 0 -- -- 91
2021-02-12 22:00:00 10.3 6 Sudoeste 10 Sudoeste 0 -- -- 93
2021-02-12 21:00:00 10.3 3 Sudeste 8 Noroeste 0 -- -- 93
2021-02-12 20:00:00 10.4 2 Noroeste 21 Oeste 0.2 -- -- 92
2021-02-12 19:00:00 10.9 9 Oeste 22 Oeste 0.4 -- -- 90
2021-02-12 18:00:00 12.1 9 Noroeste 18 Noroeste 0 -- -- 81
2021-02-12 17:00:00 12.9 6 Noroeste 30 Sudoeste 0 -- -- 78
2021-02-12 16:00:00 14.4 10 Sudoeste 29 Sudoeste 0 -- -- 72
2021-02-12 15:00:00 15.5 15 Sudoeste 27 Sudoeste 0 -- -- 69
2021-02-12 14:00:00 15.8 8 Oeste 19 Oeste 0 -- -- 66
2021-02-12 13:00:00 12.8 5 Sur 12 Sur 0 -- -- 71
2021-02-12 12:00:00 11.1 6 Sur 10 Sur 0 -- -- 75
2021-02-12 11:00:00 7 4 Sudeste 8 Sur 0 -- -- 87
2021-02-12 10:00:00 4.1 0 Calma 6 Norte 0 -- -- 99
2021-02-12 09:00:00 1.9 2 Norte 7 Norte 0 -- -- 98
2021-02-12 08:00:00 1.9 2 Norte 7 Noroeste 0 -- -- 97
2021-02-12 07:00:00 1.8 2 Sur 8 Norte 0 -- -- 97
2021-02-12 06:00:00 2.1 4 Norte 8 Norte 0 -- -- 97
2021-02-12 05:00:00 1.9 5 Norte 8 Norte 0 -- -- 95
2021-02-12 04:00:00 2.7 3 Norte 5 Sudoeste 0 -- -- 93
2021-02-12 03:00:00 3.9 3 Sur 6 Norte 0 -- -- 95
2021-02-12 02:00:00 4.7 3 Noroeste 10 Noroeste 0 -- -- 92
2021-02-12 01:00:00 4.6 6 Norte 8 Noroeste 0 -- -- 93
2021-02-12 00:00:00 5.5 3 Norte 8 Norte 0 -- -- 91
2021-02-11 23:00:00 6 5 Norte 12 Norte 0 -- -- 89
2021-02-11 22:00:00 6.6 5 Norte 9 Norte 0 -- -- 86
2021-02-11 21:00:00 7.6 2 Noroeste 6 Noroeste 0 -- -- 82
2021-02-11 20:00:00 10.1 0 Calma 8 Norte 0 -- -- 72
2021-02-11 19:00:00 12.1 5 Sudoeste 14 Sudoeste 0 -- -- 65
2021-02-11 18:00:00 13.3 5 Sudoeste 17 Sudoeste 0 -- -- 61
2021-02-11 17:00:00 15.1 9 Sudoeste 20 Sudoeste 0 -- -- 53
2021-02-11 16:00:00 15.8 9 Sudoeste 24 Sudoeste 0 -- -- 50
2021-02-11 15:00:00 15.6 9 Sudoeste 18 Sudoeste 0 -- -- 49
2021-02-11 14:00:00 13.7 6 Sudeste 10 Sur 0 -- -- 54
2021-02-11 13:00:00 11.9 6 Sudeste 17 Sur 0 -- -- 59
2021-02-11 12:00:00 9.7 5 Sudeste 10 Sudeste 0 -- -- 66
2021-02-11 11:00:00 6.8 4 Sudeste 9 Nordeste 0 -- -- 74
2021-02-11 10:00:00 2.9 4 Nordeste 6 Norte 0 -- -- 88
2021-02-11 09:00:00 -0.1 5 Norte 8 Norte 0 -- -- 98
2021-02-11 08:00:00 -2.2 4 Norte 8 Norte 0 -- -- 97
2021-02-11 07:00:00 -1.4 3 Noroeste 7 Norte 0 -- -- 97
2021-02-11 06:00:00 -0.6 5 Norte 10 Noroeste 0 -- -- 97
2021-02-11 05:00:00 -1 4 Noroeste 12 Norte 0 -- -- 95
2021-02-11 04:00:00 0.3 9 Norte 12 Norte 0 -- -- 97
2021-02-11 03:00:00 1 6 Noroeste 12 Norte 0 -- -- 94
2021-02-11 02:00:00 2.1 6 Norte 14 Norte 0 -- -- 92
2021-02-11 01:00:00 2.6 3 Norte 13 Norte 0 -- -- 90
2021-02-11 00:00:00 3.2 8 Norte 11 Noroeste 0 -- -- 88
2021-02-10 23:00:00 5.7 7 Noroeste 11 Noroeste 0 -- -- 81
2021-02-10 22:00:00 7.6 3 Sur 11 Sur 0 -- -- 75
2021-02-10 21:00:00 8.5 2 Norte 15 Noroeste 0 -- -- 72
2021-02-10 20:00:00 10.1 10 Noroeste 23 Oeste 0 -- -- 67
2021-02-10 19:00:00 10.6 9 Sudoeste 36 Oeste 0 -- -- 67
2021-02-10 18:00:00 11.6 17 Noroeste 29 Oeste 0 -- -- 65
2021-02-10 17:00:00 12.7 10 Oeste 28 Oeste 0 -- -- 64
2021-02-10 16:00:00 13.4 10 Sudoeste 27 Sudoeste 0 -- -- 64
2021-02-10 15:00:00 13 10 Sudoeste 27 Noroeste 0 -- -- 63
2021-02-10 14:00:00 12.1 11 Noroeste 23 Oeste 0 -- -- 61
2021-02-10 13:00:00 10.3 9 Noroeste 19 Oeste 0 -- -- 72
2021-02-10 12:00:00 8.2 3 Norte 10 Nordeste 0 -- -- 83
2021-02-10 11:00:00 6.8 5 Nordeste 10 Norte 0 -- -- 91
2021-02-10 10:00:00 5.7 2 Este 6 Noroeste 0 -- -- 95
2021-02-10 09:00:00 5.1 5 Noroeste 12 Sudoeste 0 -- -- 93
2021-02-10 08:00:00 5.7 12 Sudoeste 17 Sudoeste 0 -- -- 89
2021-02-10 07:00:00 5.5 6 Sudoeste 11 Sudoeste 0 -- -- 93
2021-02-10 06:00:00 5.9 6 Sudoeste 13 Sudoeste 0 -- -- 91
2021-02-10 05:00:00 5.5 3 Sudeste 14 Sur 0 -- -- 94
2021-02-10 04:00:00 6.1 4 Sur 22 Sudoeste 0 -- -- 91
2021-02-10 03:00:00 6.8 12 Sur 19 Sudoeste 0 -- -- 93
2021-02-10 02:00:00 7.2 6 Sur 17 Sudoeste 0 -- -- 90
2021-02-10 01:00:00 7.5 9 Sudoeste 17 Sudoeste 0 -- -- 91
2021-02-10 00:00:00 7.8 5 Oeste 15 Sudoeste 0 -- -- 91
2021-02-09 23:00:00 7.7 4 Sudoeste 12 Noroeste 0 -- -- 93
2021-02-09 22:00:00 7.2 3 Norte 10 Noroeste 0 -- -- 97
2021-02-09 21:00:00 7.3 4 Nordeste 17 Noroeste 0 -- -- 96
2021-02-09 20:00:00 7.7 3 Este 6 Este 0.4 -- -- 94
2021-02-09 19:00:00 8.4 2 Sur 5 Sudoeste 0.2 -- -- 90
2021-02-09 18:00:00 9 2 Sur 8 Sudoeste 0 -- -- 85
2021-02-09 17:00:00 9.3 3 Norte 15 Nordeste 0 -- -- 85
2021-02-09 16:00:00 9.2 9 Noroeste 15 Noroeste 0 -- -- 86
2021-02-09 15:00:00 10.2 7 Noroeste 18 Noroeste 0.2 -- -- 80
2021-02-09 14:00:00 10.6 10 Oeste 21 Oeste 0 -- -- 77
2021-02-09 13:00:00 8.8 2 Este 8 Sur 0 -- -- 87
2021-02-09 12:00:00 7 5 Sur 8 Sur 0 -- -- 97
2021-02-09 11:00:00 4.4 3 Este 5 Este 0 -- -- 100
2021-02-09 10:00:00 1.8 3 Norte 6 Norte 0 -- -- 100
2021-02-09 09:00:00 0.5 2 Sur 13 Noroeste 0 -- -- 100
2021-02-09 08:00:00 0.1 11 Noroeste 14 Noroeste 0 -- -- 100
2021-02-09 07:00:00 -0.7 4 Noroeste 10 Norte 0 -- -- 99
2021-02-09 06:00:00 -1.2 5 Norte 13 Noroeste 0 -- -- 98
2021-02-09 05:00:00 -0.4 5 Noroeste 9 Norte 0 -- -- 99
2021-02-09 04:00:00 -0.1 0 Calma 9 Norte 0 -- -- 98
2021-02-09 03:00:00 0.7 5 Norte 9 Norte 0 -- -- 98
2021-02-09 02:00:00 1 0 Calma 8 Norte 0 -- -- 98
2021-02-09 01:00:00 1.2 5 Norte 8 Norte 0 -- -- 96
2021-02-09 00:00:00 2.3 2 Norte 5 Norte 0 -- -- 96
2021-02-08 23:00:00 3.8 5 Norte 6 Norte 0 -- -- 95
2021-02-08 22:00:00 5.6 2 Sur 9 Sur 0 -- -- 93
2021-02-08 21:00:00 6.3 3 Sur 11 Sudoeste 0 -- -- 92
2021-02-08 20:00:00 6.9 8 Sudoeste 16 Sur 0 -- -- 90
2021-02-08 19:00:00 7.6 4 Sur 17 Sudoeste 0 -- -- 86
2021-02-08 18:00:00 8.3 10 Sudoeste 20 Sudoeste 0 -- -- 82
2021-02-08 17:00:00 9.2 6 Sudoeste 19 Sudoeste 0 -- -- 80
2021-02-08 16:00:00 9.1 4 Oeste 18 Noroeste 0 -- -- 83
2021-02-08 15:00:00 8.3 12 Sudoeste 22 Sur 0.4 -- -- 88
2021-02-08 14:00:00 7.6 3 Sur 21 Sudoeste 0.8 -- -- 90
2021-02-08 13:00:00 8.3 9 Sudoeste 28 Sudoeste 0.4 -- -- 85
2021-02-08 12:00:00 9.7 10 Sudoeste 18 Sudoeste 0 -- -- 73
2021-02-08 11:00:00 7.1 7 Sur 11 Sur 0 -- -- 80
2021-02-08 10:00:00 2.5 2 Norte 6 Norte 0 -- -- 95
2021-02-08 09:00:00 0.9 3 Sur 13 Noroeste 0 -- -- 96
2021-02-08 08:00:00 -0.1 4 Norte 10 Norte 0 -- -- 97
2021-02-08 07:00:00 0.2 5 Norte 13 Noroeste 0 -- -- 97
2021-02-08 06:00:00 0.2 0 Calma 8 Noroeste 0 -- -- 96
2021-02-08 05:00:00 0.8 2 Oeste 6 Norte 0 -- -- 92
2021-02-08 04:00:00 1.5 3 Norte 5 Sudoeste 0 -- -- 94
2021-02-08 03:00:00 1.9 0 Calma 6 Norte 0 -- -- 93
2021-02-08 02:00:00 3 2 Sudoeste 5 Sur 0 -- -- 92
2021-02-08 01:00:00 2.7 3 Norte 9 Norte 0 -- -- 95
2021-02-08 00:00:00 3.1 0 Calma 5 Norte 0 -- -- 93
2021-02-07 23:00:00 4 0 Calma 6 Norte 0 -- -- 92
2021-02-07 22:00:00 5.1 3 Sudoeste 6 Norte 0 -- -- 90
2021-02-07 21:00:00 5.2 4 Norte 9 Sudoeste 0 -- -- 87
2021-02-07 20:00:00 7 2 Sur 4 Este 0 -- -- 81
2021-02-07 19:00:00 7.7 3 Este 5 Este 0 -- -- 79
2021-02-07 18:00:00 8.3 4 Nordeste 9 Norte 0 -- -- 77
2021-02-07 17:00:00 8.7 6 Norte 12 Norte 0 -- -- 73
2021-02-07 16:00:00 8.3 5 Norte 19 Sudoeste 0 -- -- 74
2021-02-07 15:00:00 7.7 5 Noroeste 15 Sudoeste 0 -- -- 76
2021-02-07 14:00:00 6.9 6 Sudoeste 19 Sudoeste 0 -- -- 78
2021-02-07 13:00:00 6.9 6 Sudoeste 15 Sudoeste 0 -- -- 78
2021-02-07 12:00:00 6.3 8 Oeste 19 Oeste 0 -- -- 79
2021-02-07 11:00:00 5.9 11 Sudoeste 18 Sudoeste 0 -- -- 80
2021-02-07 10:00:00 5.7 5 Sudoeste 14 Noroeste 0 -- -- 82
2021-02-07 09:00:00 6.1 4 Oeste 17 Noroeste 0 -- -- 84
2021-02-07 08:00:00 6.4 3 Sudoeste 12 Sudoeste 0 -- -- 84
2021-02-07 07:00:00 6.8 5 Sudoeste 12 Noroeste 0 -- -- 83
2021-02-07 06:00:00 6.9 10 Noroeste 23 Noroeste 0 -- -- 83
2021-02-07 05:00:00 7.4 4 Sudoeste 18 Sudoeste 0 -- -- 84
2021-02-07 04:00:00 8.2 7 Sudoeste 17 Sudoeste 0 -- -- 85
2021-02-07 03:00:00 8.5 6 Noroeste 22 Noroeste 0 -- -- 86
2021-02-07 02:00:00 8.7 6 Noroeste 21 Oeste 0 -- -- 85
2021-02-07 01:00:00 9.3 6 Sudoeste 14 Oeste 0 -- -- 85
2021-02-07 00:00:00 8.9 3 Norte 13 Oeste 0 -- -- 86
2021-02-06 23:00:00 8.3 2 Sur 18 Oeste 0 -- -- 85
2021-02-06 22:00:00 7.6 3 Noroeste 9 Noroeste 0 -- -- 87
2021-02-06 21:00:00 9 0 Calma 5 Sudeste 0 -- -- 79
2021-02-06 20:00:00 10.5 2 Sudeste 7 Oeste 0 -- -- 74
2021-02-06 19:00:00 12.5 3 Sudoeste 12 Sudoeste 0 -- -- 67
2021-02-06 18:00:00 14.2 7 Sudoeste 17 Sudoeste 0 -- -- 62
2021-02-06 17:00:00 15.7 8 Sudoeste 19 Sudoeste 0 -- -- 58
2021-02-06 16:00:00 15.9 12 Sudoeste 19 Sudoeste 0 -- -- 61
2021-02-06 15:00:00 16.3 9 Sudoeste 21 Sudoeste 0 -- -- 63
2021-02-06 14:00:00 16.2 9 Sur 16 Sur 0 -- -- 66
2021-02-06 13:00:00 14.6 10 Sur 21 Sudoeste 0 -- -- 74
2021-02-06 12:00:00 15.9 13 Sudoeste 25 Sur 0 -- -- 67
2021-02-06 11:00:00 14.1 2 Este 5 Sudeste 0 -- -- 65
2021-02-06 10:00:00 11.4 3 Sur 15 Noroeste 0 -- -- 73
2021-02-06 09:00:00 10.4 0 Calma 12 Noroeste 0 -- -- 72
2021-02-06 08:00:00 11 3 Oeste 9 Norte 0 -- -- 69
2021-02-06 07:00:00 11.3 7 Sudoeste 17 Noroeste 0 -- -- 67
2021-02-06 06:00:00 10.4 8 Noroeste 13 Noroeste 0 -- -- 74
2021-02-06 05:00:00 10.2 4 Norte 7 Norte 0 -- -- 70
2021-02-06 04:00:00 9.8 4 Noroeste 9 Noroeste 0 -- -- 77
2021-02-06 03:00:00 10.3 8 Norte 10 Norte 0 -- -- 69
2021-02-06 02:00:00 9.6 5 Norte 13 Norte 0 -- -- 74
2021-02-06 01:00:00 8.6 6 Norte 12 Noroeste 0 -- -- 82
2021-02-06 00:00:00 8.6 4 Sur 9 Sur 0 -- -- 84
2021-02-05 23:00:00 8.9 2 Noroeste 11 Noroeste 0 -- -- 83
2021-02-05 22:00:00 8.7 5 Noroeste 11 Noroeste 0 -- -- 84
2021-02-05 21:00:00 9.7 6 Noroeste 9 Noroeste 0 -- -- 81
2021-02-05 20:00:00 10.9 4 Norte 8 Noroeste 0 -- -- 76
2021-02-05 19:00:00 13.3 5 Noroeste 9 Norte 0 -- -- 66
2021-02-05 18:00:00 15.3 3 Noroeste 10 Sur 0 -- -- 59
2021-02-05 17:00:00 17 6 Sur 10 Sur 0 -- -- 53
2021-02-05 16:00:00 18.3 2 Sur 10 Sur 0 -- -- 51
2021-02-05 15:00:00 17.3 10 Sur 21 Sur 0 -- -- 52
2021-02-05 14:00:00 16.4 16 Sur 22 Sur 0 -- -- 56
2021-02-05 13:00:00 16.2 7 Sur 12 Sur 0 -- -- 60
2021-02-05 12:00:00 13.4 3 Sudeste 8 Sur 0 -- -- 72
2021-02-05 11:00:00 11.2 4 Sur 10 Sur 0 -- -- 81
2021-02-05 10:00:00 7.5 4 Sur 13 Norte 0 -- -- 100
2021-02-05 09:00:00 6.4 8 Norte 13 Norte 0 -- -- 100
2021-02-05 08:00:00 6.5 3 Nordeste 10 Sudoeste 0 -- -- 100
2021-02-05 07:00:00 6.2 6 Noroeste 9 Noroeste 0 -- -- 99
2021-02-05 06:00:00 6.4 4 Sur 13 Sur 0 -- -- 99
2021-02-05 05:00:00 5.6 5 Sur 10 Sur 0 -- -- 98
2021-02-05 04:00:00 5.8 5 Noroeste 14 Norte 0 -- -- 99
2021-02-05 03:00:00 6 5 Norte 8 Norte 0 -- -- 98
2021-02-05 02:00:00 6.6 0 Calma 5 Noroeste 0 -- -- 97
2021-02-05 01:00:00 7.3 0 Calma 6 Norte 0 -- -- 96
2021-02-05 00:00:00 7.4 0 Calma 4 Sur 0 -- -- 93
2021-02-04 23:00:00 8 0 Calma 4 Sur 0 -- -- 92
2021-02-04 22:00:00 9.2 0 Calma 7 Norte 0 -- -- 89
2021-02-04 21:00:00 10.4 3 Norte 8 Noroeste 0 -- -- 85
2021-02-04 20:00:00 11.8 7 Noroeste 10 Noroeste 0 -- -- 81
2021-02-04 19:00:00 14 0 Calma 6 Sur 0 -- -- 72
2021-02-04 18:00:00 15.6 2 Sudoeste 11 Sudoeste 0 -- -- 66
2021-02-04 17:00:00 17.3 8 Sur 12 Sudoeste 0 -- -- 60
2021-02-04 16:00:00 18.8 5 Sudoeste 14 Sudoeste 0 -- -- 53
2021-02-04 15:00:00 17.8 4 Este 12 Sudoeste 0 -- -- 54
2021-02-04 14:00:00 17.5 4 Sur 9 Sudeste 0 -- -- 55
2021-02-04 13:00:00 16.5 5 Sudeste 9 Sudeste 0 -- -- 59
2021-02-04 12:00:00 13.4 4 Sudeste 10 Sur 0 -- -- 68
2021-02-04 11:00:00 9.6 5 Sur 8 Sur 0 -- -- 83
2021-02-04 10:00:00 5.5 4 Norte 6 Norte 0 -- -- 94
2021-02-04 09:00:00 3.4 2 Norte 6 Norte 0 -- -- 98
2021-02-04 08:00:00 3.3 3 Sudoeste 8 Norte 0 -- -- 98
2021-02-04 07:00:00 3.2 4 Noroeste 8 Norte 0 -- -- 98
2021-02-04 06:00:00 3.3 0 Calma 8 Norte 0 -- -- 96
2021-02-04 05:00:00 4.5 0 Calma 10 Norte 0 -- -- 96
2021-02-04 04:00:00 5.6 9 Noroeste 13 Norte 0 -- -- 98
2021-02-04 03:00:00 5.6 5 Norte 9 Noroeste 0 -- -- 95
2021-02-04 02:00:00 7.1 4 Noroeste 5 Noroeste 0 -- -- 93
2021-02-04 01:00:00 7.5 4 Noroeste 10 Noroeste 0 -- -- 89
2021-02-04 00:00:00 8.7 2 Sudoeste 8 Norte 0 -- -- 86
2021-02-03 23:00:00 8.8 3 Norte 6 Noroeste 0 -- -- 84
2021-02-03 22:00:00 10.1 3 Sudoeste 13 Noroeste 0 -- -- 81
2021-02-03 21:00:00 9.7 10 Norte 13 Norte 0 -- -- 81
2021-02-03 20:00:00 13.3 4 Oeste 9 Sudoeste 0 -- -- 67
2021-02-03 19:00:00 13.7 4 Sudoeste 10 Sudoeste 0 -- -- 66
2021-02-03 18:00:00 15.5 3 Noroeste 19 Sudoeste 0 -- -- 59
2021-02-03 17:00:00 16.6 11 Sudoeste 26 Sudoeste 0 -- -- 56
2021-02-03 16:00:00 17.3 15 Sudoeste 29 Sudoeste 0 -- -- 56
2021-02-03 15:00:00 18.4 23 Sudoeste 40 Sudoeste 0 -- -- 53
2021-02-03 14:00:00 18.8 17 Sudoeste 30 Sudoeste 0 -- -- 52
2021-02-03 13:00:00 18 11 Sudoeste 26 Sudoeste 0 -- -- 54
2021-02-03 12:00:00 14.3 4 Nordeste 8 Nordeste 0 -- -- 69
2021-02-03 11:00:00 8.6 4 Norte 6 Norte 0 -- -- 86
2021-02-03 10:00:00 5.4 2 Nordeste 5 Norte 0 -- -- 98
2021-02-03 09:00:00 1.8 4 Norte 7 Noroeste 0 -- -- 100
2021-02-03 08:00:00 0.7 4 Norte 8 Norte 0 -- -- 99
2021-02-03 07:00:00 0.7 0 Calma 9 Noroeste 0 -- -- 98
2021-02-03 06:00:00 1.7 5 Noroeste 12 Noroeste 0 -- -- 99
2021-02-03 05:00:00 1.9 0 Calma 5 Norte 0 -- -- 96
2021-02-03 04:00:00 3.1 4 Norte 7 Norte 0 -- -- 98
2021-02-03 03:00:00 3.9 4 Norte 8 Noroeste 0 -- -- 97
2021-02-03 02:00:00 4.7 2 Sudoeste 4 Sudoeste 0 -- -- 95
2021-02-03 01:00:00 5.4 0 Calma 5 Norte 0 -- -- 94
2021-02-03 00:00:00 6.1 4 Norte 8 Norte 0 -- -- 93
2021-02-02 23:00:00 7.3 4 Noroeste 6 Norte 0 -- -- 92
2021-02-02 22:00:00 9.1 2 Sur 4 Norte 0 -- -- 84
2021-02-02 21:00:00 11.1 0 Calma 8 Oeste 0 -- -- 80
2021-02-02 20:00:00 14 4 Oeste 13 Oeste 0 -- -- 69
2021-02-02 19:00:00 14.8 5 Sudoeste 15 Sudoeste 0 -- -- 67
2021-02-02 18:00:00 16.1 8 Sudoeste 18 Sudoeste 0 -- -- 63
2021-02-02 17:00:00 17.7 8 Sudoeste 23 Sudoeste 0 -- -- 59
2021-02-02 16:00:00 17.7 13 Sudoeste 24 Sudoeste 0 -- -- 58
2021-02-02 15:00:00 17.3 15 Sudoeste 29 Sudoeste 0 -- -- 57
2021-02-02 14:00:00 17.6 14 Sudoeste 31 Sudoeste 0 -- -- 56
2021-02-02 13:00:00 16.1 4 Este 15 Sudeste 0 -- -- 65
2021-02-02 12:00:00 13.3 10 Sur 14 Sur 0 -- -- 72
2021-02-02 11:00:00 10.8 3 Nordeste 10 Noroeste 0 -- -- 79
2021-02-02 10:00:00 6.6 0 Calma 7 Noroeste 0 -- -- 86
2021-02-02 09:00:00 3.6 3 Norte 9 Norte 0 -- -- 98
2021-02-02 08:00:00 2.6 3 Norte 10 Noroeste 0 -- -- 97
2021-02-02 07:00:00 3.5 3 Norte 11 Norte 0 -- -- 96
2021-02-02 06:00:00 3.6 5 Noroeste 14 Norte 0 -- -- 95
2021-02-02 05:00:00 3.5 6 Noroeste 10 Norte 0 -- -- 97
2021-02-02 04:00:00 4.2 3 Norte 11 Norte 0 -- -- 95
2021-02-02 03:00:00 5 3 Noroeste 9 Norte 0 -- -- 90
2021-02-02 02:00:00 5.5 4 Norte 9 Noroeste 0 -- -- 89
2021-02-02 01:00:00 7 4 Norte 14 Noroeste 0 -- -- 86
2021-02-02 00:00:00 8.6 10 Norte 18 Sur 0 -- -- 81
2021-02-01 23:00:00 10.9 7 Sur 17 Sudeste 0 -- -- 75
2021-02-01 22:00:00 11.6 8 Sudeste 25 Oeste 0 -- -- 71
2021-02-01 21:00:00 12.5 10 Noroeste 31 Noroeste 0 -- -- 69
2021-02-01 20:00:00 13.2 8 Oeste 29 Noroeste 0 -- -- 66
2021-02-01 19:00:00 14.5 11 Oeste 33 Noroeste 0 -- -- 60
2021-02-01 18:00:00 15 18 Oeste 44 Oeste 0 -- -- 58
2021-02-01 17:00:00 16.6 13 Oeste 32 Sudoeste 0 -- -- 51
2021-02-01 16:00:00 17.7 12 Sudoeste 41 Sudoeste 0 -- -- 48
2021-02-01 15:00:00 18 17 Sudoeste 35 Sudoeste 0 -- -- 48
2021-02-01 14:00:00 17.1 11 Oeste 37 Oeste 0 -- -- 53
2021-02-01 13:00:00 15.7 17 Noroeste 33 Noroeste 0 -- -- 56
2021-02-01 12:00:00 14.6 19 Sudoeste 31 Sudoeste 0 -- -- 61
2021-02-01 11:00:00 12.9 7 Noroeste 23 Noroeste 0 -- -- 66
2021-02-01 10:00:00 11.5 5 Oeste 16 Noroeste 0 -- -- 71
2021-02-01 09:00:00 9.4 12 Noroeste 27 Noroeste 0 -- -- 78
2021-02-01 08:00:00 9 15 Noroeste 32 Noroeste 0 -- -- 80
2021-02-01 07:00:00 9.1 9 Noroeste 37 Oeste 0 -- -- 81
2021-02-01 06:00:00 9.3 16 Noroeste 33 Noroeste 0.2 -- -- 84
2021-02-01 05:00:00 7.7 12 Oeste 27 Oeste 0 -- -- 100
2021-02-01 04:00:00 5.3 2 Noroeste 8 Norte 0 -- -- 96
2021-02-01 03:00:00 6.7 5 Sur 11 Sudoeste 0 -- -- 97
2021-02-01 02:00:00 7.6 7 Sudoeste 14 Sur 0.6 -- -- 95
2021-02-01 01:00:00 7.4 9 Noroeste 21 Norte 0.8 -- -- 91
2021-02-01 00:00:00 6 0 Calma 17 Nordeste 0 -- -- 91
2021-01-31 23:00:00 7.7 9 Noroeste 12 Norte 0 -- -- 88
2021-01-31 22:00:00 9.6 3 Norte 13 Noroeste 0 -- -- 81
2021-01-31 21:00:00 10.6 4 Oeste 12 Norte 0 -- -- 78
2021-01-31 20:00:00 11.4 5 Oeste 15 Nordeste 0 -- -- 75
2021-01-31 19:00:00 11.9 4 Norte 24 Sudoeste 0 -- -- 73
2021-01-31 18:00:00 13.7 8 Sudoeste 24 Sudoeste 0 -- -- 61
2021-01-31 17:00:00 16.2 6 Sudoeste 27 Sudoeste 0 -- -- 55
2021-01-31 16:00:00 15.2 20 Sudoeste 32 Sudoeste 0 -- -- 56
2021-01-31 15:00:00 15.4 17 Sudoeste 31 Sudoeste 0 -- -- 56
2021-01-31 14:00:00 14.8 9 Sudoeste 28 Noroeste 0 -- -- 59
2021-01-31 13:00:00 13.3 8 Oeste 26 Oeste 0 -- -- 62
2021-01-31 12:00:00 10.1 5 Oeste 29 Oeste 0 -- -- 70
2021-01-31 11:00:00 9.5 11 Noroeste 25 Noroeste 0 -- -- 71
2021-01-31 10:00:00 7.2 2 Norte 18 Oeste 0 -- -- 77
2021-01-31 09:00:00 5 6 Noroeste 17 Oeste 0 -- -- 86
2021-01-31 08:00:00 6.1 12 Noroeste 21 Oeste 0 -- -- 80
2021-01-31 07:00:00 6 6 Oeste 20 Oeste 0 -- -- 82
2021-01-31 06:00:00 5.9 3 Norte 12 Sudeste 0 -- -- 81
2021-01-31 05:00:00 6.2 3 Sudeste 13 Oeste 0 -- -- 79
2021-01-31 04:00:00 6.1 3 Sudoeste 10 Sudoeste 0 -- -- 78
2021-01-31 03:00:00 6.5 3 Sudoeste 19 Noroeste 0 -- -- 74
2021-01-31 02:00:00 6.4 5 Sudoeste 13 Sudoeste 0 -- -- 74
2021-01-31 01:00:00 6.4 5 Sur 15 Sur 0 -- -- 75
2021-01-31 00:00:00 6.8 6 Norte 33 Oeste 0 -- -- 74
2021-01-30 23:00:00 8.1 9 Noroeste 28 Noroeste 0 -- -- 73
2021-01-30 22:00:00 9.5 12 Noroeste 30 Noroeste 0 -- -- 66
2021-01-30 21:00:00 10.9 15 Oeste 28 Oeste 0 -- -- 56
2021-01-30 20:00:00 11.2 5 Noroeste 39 Oeste 0 -- -- 57
2021-01-30 19:00:00 11.8 12 Noroeste 44 Oeste 0 -- -- 61
2021-01-30 18:00:00 12.4 14 Noroeste 35 Sudoeste 0 -- -- 63
2021-01-30 17:00:00 13.9 14 Oeste 32 Noroeste 0 -- -- 53
2021-01-30 16:00:00 14.7 9 Oeste 37 Noroeste 0 -- -- 57
2021-01-30 15:00:00 15.8 12 Oeste 35 Noroeste 0 -- -- 59
2021-01-30 14:00:00 14.8 17 Sudoeste 41 Oeste 0 -- -- 62
2021-01-30 13:00:00 14.5 12 Oeste 41 Sudoeste 0 -- -- 65
2021-01-30 12:00:00 12 8 Sudoeste 32 Oeste 0 -- -- 80
2021-01-30 11:00:00 11.1 6 Oeste 29 Sudoeste 0 -- -- 84
2021-01-30 10:00:00 10.9 17 Sudoeste 27 Sudoeste 0 -- -- 86
2021-01-30 09:00:00 3.5 4 Norte 9 Norte 0 -- -- 100
2021-01-30 08:00:00 3.4 4 Norte 9 Noroeste 0 -- -- 100
2021-01-30 07:00:00 3.2 2 Noroeste 14 Noroeste 0 -- -- 99
2021-01-30 06:00:00 3.3 4 Noroeste 10 Noroeste 0 -- -- 99
2021-01-30 05:00:00 3.9 5 Noroeste 8 Noroeste 0 -- -- 98
2021-01-30 04:00:00 4.3 5 Norte 9 Noroeste 0 -- -- 96
2021-01-30 03:00:00 5.5 0 Calma 12 Norte 0 -- -- 97
2021-01-30 02:00:00 5.8 5 Norte 10 Noroeste 0 -- -- 96
2021-01-30 01:00:00 7.5 11 Norte 16 Norte 0 -- -- 96
2021-01-30 00:00:00 7.6 4 Norte 10 Noroeste 0 -- -- 94
2021-01-29 23:00:00 7.7 5 Norte 11 Noroeste 0 -- -- 90
2021-01-29 22:00:00 10.1 6 Norte 9 Noroeste 0 -- -- 87
2021-01-29 21:00:00 12.8 3 Nordeste 21 Oeste 0 -- -- 79
2021-01-29 20:00:00 14.9 8 Noroeste 17 Oeste 0 -- -- 71
2021-01-29 19:00:00 15.8 4 Oeste 17 Sudoeste 0 -- -- 69
2021-01-29 18:00:00 17.2 10 Sudoeste 35 Sudoeste 0 -- -- 65
2021-01-29 17:00:00 18.9 18 Sudoeste 26 Sudoeste 0 -- -- 61
2021-01-29 16:00:00 18.8 8 Sur 18 Sudoeste 0 -- -- 62
2021-01-29 15:00:00 18.4 6 Noroeste 18 Norte 0 -- -- 62
2021-01-29 14:00:00 17.2 6 Oeste 19 Sur 0 -- -- 66
2021-01-29 13:00:00 15.5 5 Este 9 Este 0 -- -- 73
2021-01-29 12:00:00 12.9 4 Este 6 Sudeste 0 -- -- 81
2021-01-29 11:00:00 8.9 5 Norte 10 Norte 0 -- -- 93
2021-01-29 10:00:00 5.7 5 Norte 6 Norte 0 -- -- 99
2021-01-29 09:00:00 4.1 4 Norte 9 Norte 0 -- -- 99
2021-01-29 08:00:00 4.5 6 Norte 10 Norte 0 -- -- 98
2021-01-29 07:00:00 5.3 4 Norte 12 Noroeste 0 -- -- 98
2021-01-29 06:00:00 4.9 3 Norte 10 Norte 0 -- -- 98
2021-01-29 05:00:00 5.2 3 Norte 13 Noroeste 0 -- -- 98
2021-01-29 04:00:00 5.4 0 Calma 8 Norte 0 -- -- 97
2021-01-29 03:00:00 5.3 2 Noroeste 7 Norte 0 -- -- 98
2021-01-29 02:00:00 5.9 5 Norte 10 Noroeste 0 -- -- 96
2021-01-29 01:00:00 5.3 4 Norte 7 Norte 0 -- -- 98
2021-01-29 00:00:00 6.5 2 Norte 8 Norte 0 -- -- 96
2021-01-28 23:00:00 7.8 4 Noroeste 12 Norte 0 -- -- 97
2021-01-28 22:00:00 8.1 5 Norte 9 Norte 0 -- -- 97
2021-01-28 21:00:00 9.3 7 Noroeste 10 Noroeste 0 -- -- 95
2021-01-28 20:00:00 10.9 0 Calma 5 Norte 0 -- -- 89
2021-01-28 19:00:00 12.8 0 Calma 12 Norte 0 -- -- 84
2021-01-28 18:00:00 14.8 4 Norte 11 Noroeste 0 -- -- 77
2021-01-28 17:00:00 16.2 9 Noroeste 19 Sudoeste 0 -- -- 72
2021-01-28 16:00:00 16.1 5 Noroeste 22 Oeste 0 -- -- 74
2021-01-28 15:00:00 16.1 5 Oeste 19 Oeste 0 -- -- 72
2021-01-28 14:00:00 15.2 11 Noroeste 20 Noroeste 0 -- -- 75
2021-01-28 13:00:00 14.5 9 Noroeste 27 Noroeste 0 -- -- 76
2021-01-28 12:00:00 14.3 4 Sudeste 10 Nordeste 0 -- -- 77
2021-01-28 11:00:00 10.5 7 Norte 13 Norte 0 -- -- 86
2021-01-28 10:00:00 9 6 Norte 10 Noroeste 0 -- -- 87
2021-01-28 09:00:00 8.5 5 Norte 8 Norte 0 -- -- 89
2021-01-28 08:00:00 8 4 Noroeste 12 Noroeste 0 -- -- 89
2021-01-28 07:00:00 7.6 4 Norte 10 Norte 0 -- -- 89
2021-01-28 06:00:00 7.2 5 Norte 10 Norte 0 -- -- 90
2021-01-28 05:00:00 7.3 2 Norte 8 Noroeste 0 -- -- 90
2021-01-28 04:00:00 6.9 3 Sur 13 Norte 0 -- -- 89
2021-01-28 03:00:00 7.1 11 Norte 15 Norte 0 -- -- 90
2021-01-28 02:00:00 6.7 7 Norte 12 Norte 0 -- -- 93
2021-01-28 01:00:00 6 4 Norte 10 Norte 0 -- -- 89
2021-01-28 00:00:00 6.8 6 Norte 9 Norte 0 -- -- 95
2021-01-27 23:00:00 8.3 5 Noroeste 12 Noroeste 0 -- -- 87
2021-01-27 22:00:00 7.9 3 Nordeste 11 Norte 0 -- -- 89
2021-01-27 21:00:00 9.6 6 Norte 10 Norte 0 -- -- 84
2021-01-27 20:00:00 10.1 8 Norte 10 Noroeste 0 -- -- 85
2021-01-27 19:00:00 11.4 6 Norte 10 Noroeste 0 -- -- 78
2021-01-27 18:00:00 14.7 0 Calma 6 Noroeste 0 -- -- 66
2021-01-27 17:00:00 16.4 3 Noroeste 7 Nordeste 0 -- -- 61
2021-01-27 16:00:00 16.3 4 Nordeste 8 Nordeste 0 -- -- 59
2021-01-27 15:00:00 15.1 3 Sudeste 8 Sur 0 -- -- 60
2021-01-27 14:00:00 13.3 3 Sudeste 10 Sur 0 -- -- 62
2021-01-27 13:00:00 11.7 3 Sudeste 10 Nordeste 0 -- -- 64
2021-01-27 12:00:00 8.6 2 Nordeste 8 Norte 0 -- -- 72
2021-01-27 11:00:00 5 3 Nordeste 8 Norte 0 -- -- 83
2021-01-27 10:00:00 1.3 3 Norte 10 Noroeste 0 -- -- 97
2021-01-27 09:00:00 -1.2 3 Norte 8 Norte 0 -- -- 98
2021-01-27 08:00:00 -1.3 5 Noroeste 8 Noroeste 0 -- -- 98
2021-01-27 07:00:00 -1.6 3 Noroeste 8 Noroeste 0 -- -- 97
2021-01-27 06:00:00 -1.2 2 Sudoeste 6 Noroeste 0 -- -- 97
2021-01-27 05:00:00 -1.1 3 Noroeste 10 Noroeste 0 -- -- 96
2021-01-27 04:00:00 -1 0 Calma 6 Norte 0 -- -- 96
2021-01-27 03:00:00 -0.2 4 Noroeste 10 Noroeste 0 -- -- 96
2021-01-27 02:00:00 0.2 2 Norte 10 Noroeste 0 -- -- 94
2021-01-27 01:00:00 0.1 5 Norte 9 Norte 0 -- -- 93
2021-01-27 00:00:00 0.1 3 Norte 12 Noroeste 0 -- -- 90
2021-01-26 23:00:00 0.8 6 Norte 10 Norte 0 -- -- 89
2021-01-26 22:00:00 1.3 8 Norte 10 Norte 0 -- -- 90
2021-01-26 21:00:00 3.6 7 Noroeste 10 Noroeste 0 -- -- 82
2021-01-26 20:00:00 5.6 3 Sudoeste 6 Norte 0 -- -- 72
2021-01-26 19:00:00 7.3 3 Sudoeste 10 Oeste 0 -- -- 65
2021-01-26 18:00:00 8.9 4 Sudoeste 18 Oeste 0 -- -- 58
2021-01-26 17:00:00 10.8 10 Oeste 22 Oeste 0 -- -- 48
2021-01-26 16:00:00 12.1 5 Sudoeste 20 Sudoeste 0 -- -- 55
2021-01-26 15:00:00 10.1 7 Norte 13 Noroeste 0 -- -- 62
2021-01-26 14:00:00 9.5 4 Noroeste 15 Noroeste 0 -- -- 64
2021-01-26 13:00:00 9.1 3 Sur 10 Este 0 -- -- 69
2021-01-26 12:00:00 8.1 3 Norte 13 Noroeste 0 -- -- 76
2021-01-26 11:00:00 7.1 5 Norte 8 Norte 0 -- -- 83
2021-01-26 10:00:00 4.3 5 Norte 9 Noroeste 0 -- -- 95
2021-01-26 09:00:00 3.3 4 Norte 9 Norte 0 -- -- 94
2021-01-26 08:00:00 3.5 3 Noroeste 8 Norte 0 -- -- 88
2021-01-26 07:00:00 4.8 0 Calma 5 Oeste 0 -- -- 88
2021-01-26 06:00:00 5.5 3 Oeste 6 Oeste 0 -- -- 85
2021-01-26 05:00:00 5.2 0 Calma 13 Sudoeste 0 -- -- 87
2021-01-26 04:00:00 5.7 9 Sudoeste 22 Sudoeste 0 -- -- 84
2021-01-26 03:00:00 6.2 3 Sudoeste 7 Oeste 0 -- -- 90
2021-01-26 02:00:00 7.3 3 Sur 20 Sudoeste 0 -- -- 88
2021-01-26 01:00:00 8.1 7 Sudoeste 15 Sudoeste 0 -- -- 85
2021-01-26 00:00:00 8.5 3 Sudoeste 8 Sudoeste 0 -- -- 86
2021-01-25 23:00:00 8.7 5 Sur 16 Sudoeste 0 -- -- 86
2021-01-25 22:00:00 8.9 10 Sudoeste 17 Sudoeste 0 -- -- 85
2021-01-25 21:00:00 8.8 2 Sudeste 10 Sudoeste 0 -- -- 84
2021-01-25 20:00:00 8.4 2 Sudeste 9 Sur 0 -- -- 85
2021-01-25 19:00:00 8.7 5 Sur 13 Oeste 0 -- -- 82
2021-01-25 18:00:00 9.7 9 Oeste 13 Oeste 0 -- -- 78
2021-01-25 17:00:00 10.9 6 Sur 10 Sur 0 -- -- 72
2021-01-25 16:00:00 11.3 0 Calma 5 Nordeste 0 -- -- 68
2021-01-25 15:00:00 11.3 5 Nordeste 12 Nordeste 0 -- -- 69
2021-01-25 14:00:00 11.4 10 Nordeste 14 Nordeste 0 -- -- 68
2021-01-25 13:00:00 9.3 3 Norte 9 Noroeste 0 -- -- 72
2021-01-25 12:00:00 6.1 4 Norte 10 Norte 0 -- -- 80
2021-01-25 11:00:00 3.8 3 Norte 9 Norte 0 -- -- 86
2021-01-25 10:00:00 1.6 5 Norte 8 Norte 0 -- -- 92
2021-01-25 09:00:00 0.4 0 Calma 6 Noroeste 0 -- -- 95
2021-01-25 08:00:00 0.1 5 Norte 7 Noroeste 0 -- -- 95
2021-01-25 07:00:00 0.3 4 Norte 11 Norte 0 -- -- 91
2021-01-25 06:00:00 0.2 4 Norte 8 Noroeste 0 -- -- 93
2021-01-25 05:00:00 1.7 7 Norte 10 Norte 0 -- -- 89
2021-01-25 04:00:00 4.7 3 Sudeste 8 Sudoeste 0 -- -- 84
2021-01-25 03:00:00 5.9 3 Sur 16 Sudoeste 0 -- -- 80
2021-01-25 02:00:00 6.8 5 Sudoeste 23 Sudoeste 0 -- -- 77
2021-01-25 01:00:00 6.6 14 Sudoeste 23 Sudoeste 0 -- -- 78
2021-01-25 00:00:00 6.7 5 Sudoeste 18 Sudoeste 0 -- -- 73